sensor_id;sensor_type;location;lat;lon;timestamp;pressure;altitude;pressure_sealevel;temperature;humidity
47430;BME280;33181;49.246;7.372;2023-04-08T00:01:08;99175.78;;;9.09;92.40
47430;BME280;33181;49.246;7.372;2023-04-08T00:03:34;99185.31;;;9.10;92.16
47430;BME280;33181;49.246;7.372;2023-04-08T00:05:59;99182.69;;;9.10;92.44
47430;BME280;33181;49.246;7.372;2023-04-08T00:08:27;99182.91;;;9.07;92.33
47430;BME280;33181;49.246;7.372;2023-04-08T00:10:53;99181.25;;;9.06;92.60
47430;BME280;33181;49.246;7.372;2023-04-08T00:13:19;99181.25;;;9.06;92.46
47430;BME280;33181;49.246;7.372;2023-04-08T00:15:45;99190.25;;;9.02;92.52
47430;BME280;33181;49.246;7.372;2023-04-08T00:18:13;99186.25;;;8.96;93.33
47430;BME280;33181;49.246;7.372;2023-04-08T00:20:41;99187.28;;;8.94;93.15
47430;BME280;33181;49.246;7.372;2023-04-08T00:23:07;99192.53;;;8.94;92.95
47430;BME280;33181;49.246;7.372;2023-04-08T00:25:34;99186.34;;;8.95;93.18
47430;BME280;33181;49.246;7.372;2023-04-08T00:28:00;99192.44;;;8.95;93.30
47430;BME280;33181;49.246;7.372;2023-04-08T00:30:26;99189.91;;;8.94;93.62
47430;BME280;33181;49.246;7.372;2023-04-08T00:32:53;99193.38;;;8.94;93.47
47430;BME280;33181;49.246;7.372;2023-04-08T00:35:19;99187.22;;;8.95;93.26
47430;BME280;33181;49.246;7.372;2023-04-08T00:37:44;99183.84;;;8.93;93.13
47430;BME280;33181;49.246;7.372;2023-04-08T00:40:10;99183.84;;;8.93;92.94
47430;BME280;33181;49.246;7.372;2023-04-08T00:42:37;99184.88;;;8.91;92.98
47430;BME280;33181;49.246;7.372;2023-04-08T00:45:03;99188.25;;;8.93;93.24
47430;BME280;33181;49.246;7.372;2023-04-08T00:47:30;99183.22;;;8.90;93.33
47430;BME280;33181;49.246;7.372;2023-04-08T00:49:56;99189.16;;;8.92;93.59
47430;BME280;33181;49.246;7.372;2023-04-08T00:52:21;99190.13;;;8.91;93.28
47430;BME280;33181;49.246;7.372;2023-04-08T00:54:47;99196.09;;;8.93;93.57
47430;BME280;33181;49.246;7.372;2023-04-08T00:57:13;99195.91;;;8.96;93.53
47430;BME280;33181;49.246;7.372;2023-04-08T00:59:40;99194.00;;;8.98;93.56
47430;BME280;33181;49.246;7.372;2023-04-08T01:02:32;99198.53;;;8.96;93.48
47430;BME280;33181;49.246;7.372;2023-04-08T01:06:06;99205.44;;;8.97;93.71
47430;BME280;33181;49.246;7.372;2023-04-08T01:08:10;99193.78;;;9.01;93.27
47430;BME280;33181;49.246;7.372;2023-04-08T01:10:37;99199.88;;;9.01;93.48
47430;BME280;33181;49.246;7.372;2023-04-08T01:13:07;99204.19;;;9.02;93.35
47430;BME280;33181;49.246;7.372;2023-04-08T01:15:37;99204.91;;;9.04;93.26
47430;BME280;33181;49.246;7.372;2023-04-08T01:18:11;99196.97;;;9.06;93.19
47430;BME280;33181;49.246;7.372;2023-04-08T01:20:39;99202.28;;;9.04;93.06
47430;BME280;33181;49.246;7.372;2023-04-08T01:23:18;99200.81;;;9.00;92.87
47430;BME280;33181;49.246;7.372;2023-04-08T01:25:54;99204.69;;;8.95;92.84
47430;BME280;33181;49.246;7.372;2023-04-08T01:28:24;99203.22;;;8.91;92.81
47430;BME280;33181;49.246;7.372;2023-04-08T01:30:54;99200.91;;;8.86;93.07
47430;BME280;33181;49.246;7.372;2023-04-08T01:33:21;99208.66;;;8.88;93.26
47430;BME280;33181;49.246;7.372;2023-04-08T01:35:48;99205.00;;;8.90;93.42
47430;BME280;33181;49.246;7.372;2023-04-08T01:38:18;99201.56;;;8.90;93.16
47430;BME280;33181;49.246;7.372;2023-04-08T01:40:46;99209.41;;;8.90;93.38
47430;BME280;33181;49.246;7.372;2023-04-08T01:43:14;99210.25;;;8.90;92.90
47430;BME280;33181;49.246;7.372;2023-04-08T01:45:44;99208.56;;;8.89;93.23
47430;BME280;33181;49.246;7.372;2023-04-08T01:48:13;99192.84;;;8.89;93.19
47430;BME280;33181;49.246;7.372;2023-04-08T01:50:41;99193.69;;;8.90;93.09
47430;BME280;33181;49.246;7.372;2023-04-08T01:53:09;99198.19;;;8.88;92.86
47430;BME280;33181;49.246;7.372;2023-04-08T01:55:40;99198.19;;;8.88;92.64
47430;BME280;33181;49.246;7.372;2023-04-08T01:58:10;99196.59;;;8.85;92.77
47430;BME280;33181;49.246;7.372;2023-04-08T02:00:38;99197.34;;;8.87;92.81
47430;BME280;33181;49.246;7.372;2023-04-08T02:03:05;99195.56;;;8.88;93.01
47430;BME280;33181;49.246;7.372;2023-04-08T02:05:33;99194.53;;;8.90;92.77
47430;BME280;33181;49.246;7.372;2023-04-08T02:07:59;99194.63;;;8.89;92.87
47430;BME280;33181;49.246;7.372;2023-04-08T02:10:28;99195.56;;;8.88;93.00
47430;BME280;33181;49.246;7.372;2023-04-08T02:12:54;99196.91;;;8.80;93.17
47430;BME280;33181;49.246;7.372;2023-04-08T02:15:20;99201.22;;;8.81;93.02
47430;BME280;33181;49.246;7.372;2023-04-08T02:17:59;99207.47;;;8.79;93.17
47430;BME280;33181;49.246;7.372;2023-04-08T02:20:41;99203.03;;;8.67;93.95
47430;BME280;33181;49.246;7.372;2023-04-08T02:23:23;99206.72;;;8.64;94.55
47430;BME280;33181;49.246;7.372;2023-04-08T02:25:55;99207.56;;;8.65;94.35
47430;BME280;33181;49.246;7.372;2023-04-08T02:28:21;99204.19;;;8.63;94.60
47430;BME280;33181;49.246;7.372;2023-04-08T02:30:51;99202.59;;;8.60;94.63
47430;BME280;33181;49.246;7.372;2023-04-08T02:33:20;99205.22;;;8.60;94.79
47430;BME280;33181;49.246;7.372;2023-04-08T02:35:51;99208.16;;;8.55;94.77
47430;BME280;33181;49.246;7.372;2023-04-08T02:38:20;99205.22;;;8.60;95.07
47430;BME280;33181;49.246;7.372;2023-04-08T02:40:49;99204.94;;;8.65;95.01
47430;BME280;33181;49.246;7.372;2023-04-08T02:43:15;99207.44;;;8.66;94.46
47430;BME280;33181;49.246;7.372;2023-04-08T02:45:42;99205.66;;;8.67;94.35
47430;BME280;33181;49.246;7.372;2023-04-08T02:48:09;99214.59;;;8.64;94.29
47430;BME280;33181;49.246;7.372;2023-04-08T02:50:35;99201.78;;;8.59;94.30
47430;BME280;33181;49.246;7.372;2023-04-08T02:53:01;99204.72;;;8.55;94.38
47430;BME280;33181;49.246;7.372;2023-04-08T02:55:27;99205.34;;;8.58;93.94
47430;BME280;33181;49.246;7.372;2023-04-08T02:57:53;99209.34;;;8.64;93.98
47430;BME280;33181;49.246;7.372;2023-04-08T03:00:18;99205.38;;;8.71;93.81
47430;BME280;33181;49.246;7.372;2023-04-08T03:02:44;99198.28;;;8.73;93.78
47430;BME280;33181;49.246;7.372;2023-04-08T03:05:10;99205.81;;;8.78;93.57
47430;BME280;33181;49.246;7.372;2023-04-08T03:07:38;99206.44;;;8.81;93.41
47430;BME280;33181;49.246;7.372;2023-04-08T03:10:05;99210.72;;;8.82;93.55
47430;BME280;33181;49.246;7.372;2023-04-08T03:12:31;99202.88;;;8.82;93.55
47430;BME280;33181;49.246;7.372;2023-04-08T03:14:57;99206.25;;;8.85;93.51
47430;BME280;33181;49.246;7.372;2023-04-08T03:17:23;99207.91;;;8.86;93.19
47430;BME280;33181;49.246;7.372;2023-04-08T03:19:49;99213.16;;;8.86;93.25
47430;BME280;33181;49.246;7.372;2023-04-08T03:22:15;99209.91;;;8.82;93.07
47430;BME280;33181;49.246;7.372;2023-04-08T03:24:41;99210.84;;;8.81;93.29
47430;BME280;33181;49.246;7.372;2023-04-08T03:27:06;99212.63;;;8.80;92.76
47430;BME280;33181;49.246;7.372;2023-04-08T03:29:33;99210.00;;;8.80;93.02
47430;BME280;33181;49.246;7.372;2023-04-08T03:31:58;99215.97;;;8.82;93.02
47430;BME280;33181;49.246;7.372;2023-04-08T03:34:24;99210.31;;;8.76;92.71
47430;BME280;33181;49.246;7.372;2023-04-08T03:36:50;99214.00;;;8.73;93.18
47430;BME280;33181;49.246;7.372;2023-04-08T03:39:16;99220.25;;;8.71;93.38
47430;BME280;33181;49.246;7.372;2023-04-08T03:41:42;99216.59;;;8.73;93.45
47430;BME280;33181;49.246;7.372;2023-04-08T03:44:08;99216.41;;;8.76;93.63
47430;BME280;33181;49.246;7.372;2023-04-08T03:46:33;99218.56;;;8.70;93.19
47430;BME280;33181;49.246;7.372;2023-04-08T03:48:59;99217.09;;;8.66;93.40
47430;BME280;33181;49.246;7.372;2023-04-08T03:51:25;99213.44;;;8.68;93.55
47430;BME280;33181;49.246;7.372;2023-04-08T03:53:51;99214.38;;;8.67;93.64
47430;BME280;33181;49.246;7.372;2023-04-08T03:56:19;99216.25;;;8.65;93.86
47430;BME280;33181;49.246;7.372;2023-04-08T03:58:45;99211.97;;;8.64;94.26
47430;BME280;33181;49.246;7.372;2023-04-08T04:01:10;99218.88;;;8.65;94.38
47430;BME280;33181;49.246;7.372;2023-04-08T04:03:36;99214.19;;;8.70;94.08
47430;BME280;33181;49.246;7.372;2023-04-08T04:06:02;99210.63;;;8.71;94.08
47430;BME280;33181;49.246;7.372;2023-04-08T04:08:28;99210.50;;;8.73;93.97
47430;BME280;33181;49.246;7.372;2023-04-08T04:10:53;99209.66;;;8.72;93.71
47430;BME280;33181;49.246;7.372;2023-04-08T04:13:19;99218.34;;;8.73;93.91
47430;BME280;33181;49.246;7.372;2023-04-08T04:15:46;99216.28;;;8.78;93.40
47430;BME280;33181;49.246;7.372;2023-04-08T04:18:12;99212.63;;;8.80;92.82
47430;BME280;33181;49.246;7.372;2023-04-08T04:20:41;99216.28;;;8.78;93.17
47430;BME280;33181;49.246;7.372;2023-04-08T04:23:07;99217.13;;;8.78;93.43
47430;BME280;33181;49.246;7.372;2023-04-08T04:25:33;99217.13;;;8.78;92.97
47430;BME280;33181;49.246;7.372;2023-04-08T04:27:59;99218.34;;;8.73;93.09
47430;BME280;33181;49.246;7.372;2023-04-08T04:30:26;99226.13;;;8.74;93.05
47430;BME280;33181;49.246;7.372;2023-04-08T04:32:52;99232.84;;;8.78;93.05
47430;BME280;33181;49.246;7.372;2023-04-08T04:35:18;99224.78;;;8.81;92.79
47430;BME280;33181;49.246;7.372;2023-04-08T04:37:43;99225.81;;;8.79;92.38
47430;BME280;33181;49.246;7.372;2023-04-08T04:40:10;99229.78;;;8.72;92.83
47430;BME280;33181;49.246;7.372;2023-04-08T04:42:36;99230.63;;;8.72;92.89
47430;BME280;33181;49.246;7.372;2023-04-08T04:45:02;99236.16;;;8.68;92.96
47430;BME280;33181;49.246;7.372;2023-04-08T04:47:27;99232.06;;;8.64;93.18
47430;BME280;33181;49.246;7.372;2023-04-08T04:49:53;99234.97;;;8.59;93.68
47430;BME280;33181;49.246;7.372;2023-04-08T04:52:19;99234.97;;;8.59;94.13
47430;BME280;33181;49.246;7.372;2023-04-08T04:54:45;99238.22;;;8.63;94.32
47430;BME280;33181;49.246;7.372;2023-04-08T04:57:10;99237.19;;;8.65;94.31
47430;BME280;33181;49.246;7.372;2023-04-08T04:59:36;99237.97;;;8.67;94.29
47430;BME280;33181;49.246;7.372;2023-04-08T05:02:02;99234.47;;;8.67;94.31
47430;BME280;33181;49.246;7.372;2023-04-08T05:04:28;99243.28;;;8.66;93.68
47430;BME280;33181;49.246;7.372;2023-04-08T05:06:54;99238.59;;;8.71;93.27
47430;BME280;33181;49.246;7.372;2023-04-08T05:09:19;99238.47;;;8.72;93.62
47430;BME280;33181;49.246;7.372;2023-04-08T05:11:45;99247.28;;;8.71;93.51
47430;BME280;33181;49.246;7.372;2023-04-08T05:14:11;99243.47;;;8.63;93.30
47430;BME280;33181;49.246;7.372;2023-04-08T05:16:37;99243.19;;;8.67;93.33
47430;BME280;33181;49.246;7.372;2023-04-08T05:19:03;99248.22;;;8.70;92.78
47430;BME280;33181;49.246;7.372;2023-04-08T05:21:29;99242.81;;;8.73;92.94
47430;BME280;33181;49.246;7.372;2023-04-08T05:23:57;99247.84;;;8.76;93.12
47430;BME280;33181;49.246;7.372;2023-04-08T05:26:22;99246.69;;;8.80;92.94
47430;BME280;33181;49.246;7.372;2023-04-08T05:28:49;99250.03;;;8.82;92.53
47430;BME280;33181;49.246;7.372;2023-04-08T05:31:17;99243.75;;;8.85;92.70
47430;BME280;33181;49.246;7.372;2023-04-08T05:33:42;99250.56;;;8.88;92.41
47430;BME280;33181;49.246;7.372;2023-04-08T05:36:11;99250.03;;;8.82;92.56
47430;BME280;33181;49.246;7.372;2023-04-08T05:38:37;99254.22;;;8.85;92.42
47430;BME280;33181;49.246;7.372;2023-04-08T05:41:03;99259.06;;;8.91;92.16
47430;BME280;33181;49.246;7.372;2023-04-08T05:43:29;99259.63;;;8.96;91.94
47430;BME280;33181;49.246;7.372;2023-04-08T05:45:55;99263.63;;;9.02;92.21
47430;BME280;33181;49.246;7.372;2023-04-08T05:48:21;99260.69;;;9.07;92.01
47430;BME280;33181;49.246;7.372;2023-04-08T05:50:47;99267.38;;;9.11;91.63
47430;BME280;33181;49.246;7.372;2023-04-08T05:53:13;99263.00;;;9.11;91.72
47430;BME280;33181;49.246;7.372;2023-04-08T05:55:39;99268.56;;;9.19;91.55
47430;BME280;33181;49.246;7.372;2023-04-08T05:58:06;99266.69;;;9.21;91.18
47430;BME280;33181;49.246;7.372;2023-04-08T06:00:31;99269.75;;;9.28;91.23
47430;BME280;33181;49.246;7.372;2023-04-08T06:02:57;99276.38;;;9.34;91.27
47430;BME280;33181;49.246;7.372;2023-04-08T06:05:23;99282.31;;;9.36;90.93
47430;BME280;33181;49.246;7.372;2023-04-08T06:07:49;99281.19;;;9.40;90.86
47430;BME280;33181;49.246;7.372;2023-04-08T06:10:15;99284.25;;;9.46;90.78
47430;BME280;33181;49.246;7.372;2023-04-08T06:12:41;99289.16;;;9.51;90.55
47430;BME280;33181;49.246;7.372;2023-04-08T06:15:07;99289.72;;;9.56;90.43
47430;BME280;33181;49.246;7.372;2023-04-08T06:17:37;99287.50;;;9.63;90.18
47430;BME280;33181;49.246;7.372;2023-04-08T06:20:04;99290.47;;;9.71;89.27
47430;BME280;33181;49.246;7.372;2023-04-08T06:22:30;99292.75;;;9.75;89.18
47430;BME280;33181;49.246;7.372;2023-04-08T06:24:56;99298.41;;;9.82;89.10
47430;BME280;33181;49.246;7.372;2023-04-08T06:27:22;99297.66;;;9.80;88.83
47430;BME280;33181;49.246;7.372;2023-04-08T06:29:47;99299.38;;;9.81;88.75
47430;BME280;33181;49.246;7.372;2023-04-08T06:32:13;99304.91;;;9.89;88.19
47430;BME280;33181;49.246;7.372;2023-04-08T06:34:40;99301.88;;;9.95;87.96
47430;BME280;33181;49.246;7.372;2023-04-08T06:37:06;99302.19;;;10.04;87.23
47430;BME280;33181;49.246;7.372;2023-04-08T06:39:32;99299.13;;;10.10;87.04
47430;BME280;33181;49.246;7.372;2023-04-08T06:41:58;99302.25;;;10.15;86.16
47430;BME280;33181;49.246;7.372;2023-04-08T06:44:24;99302.03;;;10.18;85.65
47430;BME280;33181;49.246;7.372;2023-04-08T06:46:50;99303.53;;;10.22;85.83
47430;BME280;33181;49.246;7.372;2023-04-08T06:49:15;99300.06;;;10.21;84.78
47430;BME280;33181;49.246;7.372;2023-04-08T06:51:41;99310.25;;;10.26;84.82
47430;BME280;33181;49.246;7.372;2023-04-08T06:54:07;99305.41;;;10.33;84.13
47430;BME280;33181;49.246;7.372;2023-04-08T06:56:35;99307.81;;;10.36;83.77
47430;BME280;33181;49.246;7.372;2023-04-08T06:59:01;99304.03;;;10.40;84.05
47430;BME280;33181;49.246;7.372;2023-04-08T07:01:27;99307.19;;;10.45;83.32
47430;BME280;33181;49.246;7.372;2023-04-08T07:03:53;99304.22;;;10.50;83.12
47430;BME280;33181;49.246;7.372;2023-04-08T07:06:19;99307.53;;;10.64;82.90
47430;BME280;33181;49.246;7.372;2023-04-08T07:08:45;99315.88;;;10.82;82.27
47430;BME280;33181;49.246;7.372;2023-04-08T07:11:11;99311.75;;;10.91;81.74
47430;BME280;33181;49.246;7.372;2023-04-08T07:13:36;99312.91;;;10.87;80.30
47430;BME280;33181;49.246;7.372;2023-04-08T07:16:03;99321.81;;;10.73;80.06
47430;BME280;33181;49.246;7.372;2023-04-08T07:18:29;99329.34;;;10.78;80.60
47430;BME280;33181;49.246;7.372;2023-04-08T07:20:55;99327.50;;;10.67;80.47
47430;BME280;33181;49.246;7.372;2023-04-08T07:23:22;99326.34;;;10.58;80.69
47430;BME280;33181;49.246;7.372;2023-04-08T07:25:48;99329.13;;;10.57;81.07
47430;BME280;33181;49.246;7.372;2023-04-08T07:28:14;99338.44;;;10.61;80.90
47430;BME280;33181;49.246;7.372;2023-04-08T07:30:40;99333.41;;;10.58;80.48
47430;BME280;33181;49.246;7.372;2023-04-08T07:33:05;99336.41;;;10.40;80.33
47430;BME280;33181;49.246;7.372;2023-04-08T07:35:33;99346.91;;;10.40;81.11
47430;BME280;33181;49.246;7.372;2023-04-08T07:37:58;99342.91;;;10.48;81.14
47430;BME280;33181;49.246;7.372;2023-04-08T07:40:24;99348.44;;;10.56;80.50
47430;BME280;33181;49.246;7.372;2023-04-08T07:42:50;99347.72;;;10.54;80.19
47430;BME280;33181;49.246;7.372;2023-04-08T07:45:16;99354.41;;;10.58;80.20
47430;BME280;33181;49.246;7.372;2023-04-08T07:47:43;99350.03;;;10.46;80.08
47430;BME280;33181;49.246;7.372;2023-04-08T07:50:09;99343.94;;;10.45;79.91
47430;BME280;33181;49.246;7.372;2023-04-08T07:52:35;99346.66;;;10.56;79.77
47430;BME280;33181;49.246;7.372;2023-04-08T07:55:01;99346.47;;;10.47;79.00
47430;BME280;33181;49.246;7.372;2023-04-08T07:57:27;99343.84;;;10.08;80.91
47430;BME280;33181;49.246;7.372;2023-04-08T07:59:52;99355.19;;;10.21;80.87
47430;BME280;33181;49.246;7.372;2023-04-08T08:02:18;99348.47;;;10.30;80.55
47430;BME280;33181;49.246;7.372;2023-04-08T08:04:44;99362.44;;;10.43;80.42
47430;BME280;33181;49.246;7.372;2023-04-08T08:07:10;99351.28;;;10.53;79.74
47430;BME280;33181;49.246;7.372;2023-04-08T08:09:36;99350.06;;;10.82;79.89
47430;BME280;33181;49.246;7.372;2023-04-08T08:12:03;99355.78;;;11.00;78.20
47430;BME280;33181;49.246;7.372;2023-04-08T08:14:29;99349.75;;;11.22;77.31
47430;BME280;33181;49.246;7.372;2023-04-08T08:16:54;99352.66;;;11.30;76.17
47430;BME280;33181;49.246;7.372;2023-04-08T08:19:21;99355.75;;;11.48;76.01
47430;BME280;33181;49.246;7.372;2023-04-08T08:21:47;99349.56;;;11.60;74.60
47430;BME280;33181;49.246;7.372;2023-04-08T08:24:13;99347.53;;;11.75;74.31
47430;BME280;33181;49.246;7.372;2023-04-08T08:26:39;99356.63;;;11.71;74.06
47430;BME280;33181;49.246;7.372;2023-04-08T08:29:05;99366.63;;;11.90;73.59
47430;BME280;33181;49.246;7.372;2023-04-08T08:31:36;99364.03;;;12.01;72.89
47430;BME280;33181;49.246;7.372;2023-04-08T08:34:03;99368.59;;;12.11;72.46
47430;BME280;33181;49.246;7.372;2023-04-08T08:36:29;99371.47;;;12.30;72.08
47430;BME280;33181;49.246;7.372;2023-04-08T08:38:55;99370.63;;;12.18;70.79
47430;BME280;33181;49.246;7.372;2023-04-08T08:41:21;99373.09;;;11.97;72.28
47430;BME280;33181;49.246;7.372;2023-04-08T08:43:47;99377.28;;;11.89;72.42
47430;BME280;33181;49.246;7.372;2023-04-08T08:46:16;99371.13;;;12.23;71.94
47430;BME280;33181;49.246;7.372;2023-04-08T08:48:43;99370.06;;;12.48;70.51
47430;BME280;33181;49.246;7.372;2023-04-08T08:51:11;99372.88;;;12.23;70.16
47430;BME280;33181;49.246;7.372;2023-04-08T08:53:37;99379.03;;;12.46;69.62
47430;BME280;33181;49.246;7.372;2023-04-08T08:56:04;99373.94;;;12.88;67.39
47430;BME280;33181;49.246;7.372;2023-04-08T08:58:33;99383.47;;;12.45;67.72
47430;BME280;33181;49.246;7.372;2023-04-08T09:00:59;99369.72;;;12.96;68.39
47430;BME280;33181;49.246;7.372;2023-04-08T09:03:27;99374.78;;;13.43;67.21
47430;BME280;33181;49.246;7.372;2023-04-08T09:06:00;99373.50;;;14.00;65.60
47430;BME280;33181;49.246;7.372;2023-04-08T09:08:28;99372.31;;;14.14;62.85
47430;BME280;33181;49.246;7.372;2023-04-08T09:10:56;99378.72;;;13.90;64.23
47430;BME280;33181;49.246;7.372;2023-04-08T09:13:35;99375.00;;;14.24;63.10
47430;BME280;33181;49.246;7.372;2023-04-08T09:16:07;99381.31;;;14.32;63.44
47430;BME280;33181;49.246;7.372;2023-04-08T09:18:35;99375.31;;;14.30;62.79
47430;BME280;33181;49.246;7.372;2023-04-08T09:21:03;99382.69;;;14.06;62.47
47430;BME280;33181;49.246;7.372;2023-04-08T09:26:17;99382.97;;;13.82;62.80
47430;BME280;33181;49.246;7.372;2023-04-08T09:29:06;99392.06;;;13.89;63.27
47430;BME280;33181;49.246;7.372;2023-04-08T09:31:40;99386.56;;;14.02;62.50
47430;BME280;33181;49.246;7.372;2023-04-08T09:34:16;99376.50;;;14.17;62.95
47430;BME280;33181;49.246;7.372;2023-04-08T09:36:44;99378.97;;;14.39;60.54
47430;BME280;33181;49.246;7.372;2023-04-08T09:39:10;99379.84;;;14.49;60.22
47430;BME280;33181;49.246;7.372;2023-04-08T09:41:37;99382.34;;;14.41;59.86
47430;BME280;33181;49.246;7.372;2023-04-08T09:44:06;99381.63;;;14.39;59.11
47430;BME280;33181;49.246;7.372;2023-04-08T09:47:06;99380.66;;;14.09;60.71
47430;BME280;33181;49.246;7.372;2023-04-08T09:49:42;99377.34;;;13.96;59.65
47430;BME280;33181;49.246;7.372;2023-04-08T09:52:14;99384.59;;;14.25;60.89
47430;BME280;33181;49.246;7.372;2023-04-08T09:55:05;99381.97;;;14.96;59.83
47430;BME280;33181;49.246;7.372;2023-04-08T09:57:45;99379.69;;;15.51;56.47
47430;BME280;33181;49.246;7.372;2023-04-08T10:00:17;99378.53;;;15.53;55.60
47430;BME280;33181;49.246;7.372;2023-04-08T10:02:55;99374.47;;;15.98;53.31
47430;BME280;33181;49.246;7.372;2023-04-08T10:05:25;99372.19;;;16.22;53.99
47430;BME280;33181;49.246;7.372;2023-04-08T10:07:52;99378.13;;;16.72;52.68
47430;BME280;33181;49.246;7.372;2023-04-08T10:10:18;99382.28;;;17.29;52.38
47430;BME280;33181;49.246;7.372;2023-04-08T10:12:45;99375.59;;;17.61;49.67
47430;BME280;33181;49.246;7.372;2023-04-08T10:15:26;99369.34;;;18.14;48.59
47430;BME280;33181;49.246;7.372;2023-04-08T10:18:39;99375.09;;;18.27;47.61
47430;BME280;33181;49.246;7.372;2023-04-08T10:20:45;99368.94;;;18.69;45.62
47430;BME280;33181;49.246;7.372;2023-04-08T10:23:12;99372.28;;;19.06;44.58
47430;BME280;33181;49.246;7.372;2023-04-08T10:25:46;99358.97;;;18.29;45.05
47430;BME280;33181;49.246;7.372;2023-04-08T10:30:50;99363.69;;;18.43;45.61
47430;BME280;33181;49.246;7.372;2023-04-08T10:33:32;99361.63;;;17.77;44.82
47430;BME280;33181;49.246;7.372;2023-04-08T10:36:07;99364.28;;;17.77;44.19
47430;BME280;33181;49.246;7.372;2023-04-08T10:38:38;99357.00;;;17.43;44.22
47430;BME280;33181;49.246;7.372;2023-04-08T10:41:04;99357.50;;;16.65;47.67
47430;BME280;33181;49.246;7.372;2023-04-08T10:43:34;99365.28;;;16.77;48.19
47430;BME280;33181;49.246;7.372;2023-04-08T10:46:01;99360.59;;;16.33;48.44
47430;BME280;33181;49.246;7.372;2023-04-08T10:48:28;99349.53;;;15.91;51.64
47430;BME280;33181;49.246;7.372;2023-04-08T10:51:01;99358.31;;;16.38;48.96
47430;BME280;33181;49.246;7.372;2023-04-08T10:53:33;99349.53;;;16.65;47.66
47430;BME280;33181;49.246;7.372;2023-04-08T10:56:13;99343.31;;;17.02;48.20
47430;BME280;33181;49.246;7.372;2023-04-08T10:58:51;99354.66;;;16.77;45.49
47430;BME280;33181;49.246;7.372;2023-04-08T11:01:18;99351.78;;;16.60;44.92
47430;BME280;33181;49.246;7.372;2023-04-08T11:03:44;99353.41;;;16.43;43.61
47430;BME280;33181;49.246;7.372;2023-04-08T11:06:10;99352.59;;;16.43;43.79
47430;BME280;33181;49.246;7.372;2023-04-08T11:08:37;99354.41;;;16.33;45.28
47430;BME280;33181;49.246;7.372;2023-04-08T11:11:04;99360.88;;;16.30;46.94
47430;BME280;33181;49.246;7.372;2023-04-08T11:13:34;99360.72;;;15.36;47.70
47430;BME280;33181;49.246;7.372;2023-04-08T11:16:02;99353.72;;;15.25;48.46
47430;BME280;33181;49.246;7.372;2023-04-08T11:18:30;99352.22;;;15.33;49.16
47430;BME280;33181;49.246;7.372;2023-04-08T11:20:56;99351.50;;;15.01;50.50
47430;BME280;33181;49.246;7.372;2023-04-08T11:23:25;99355.41;;;15.07;51.67
47430;BME280;33181;49.246;7.372;2023-04-08T11:25:52;99361.53;;;14.98;50.65
47430;BME280;33181;49.246;7.372;2023-04-08T11:28:18;99353.84;;;14.85;49.41
47430;BME280;33181;49.246;7.372;2023-04-08T11:30:44;99351.50;;;14.92;50.64
47430;BME280;33181;49.246;7.372;2023-04-08T11:33:12;99354.16;;;14.51;49.98
47430;BME280;33181;49.246;7.372;2023-04-08T11:35:43;99341.69;;;14.32;49.50
47430;BME280;33181;49.246;7.372;2023-04-08T11:38:10;99350.50;;;14.22;50.95
47430;BME280;33181;49.246;7.372;2023-04-08T11:40:37;99349.09;;;14.18;50.95
47430;BME280;33181;49.246;7.372;2023-04-08T11:43:12;99354.84;;;14.23;52.07
47430;BME280;33181;49.246;7.372;2023-04-08T11:45:41;99349.03;;;14.29;51.67
47430;BME280;33181;49.246;7.372;2023-04-08T11:48:14;99340.34;;;14.17;51.61
47430;BME280;33181;49.246;7.372;2023-04-08T11:50:42;99346.66;;;14.26;53.29
47430;BME280;33181;49.246;7.372;2023-04-08T11:53:24;99347.56;;;14.46;52.48
47430;BME280;33181;49.246;7.372;2023-04-08T11:55:50;99342.06;;;14.58;51.65
47430;BME280;33181;49.246;7.372;2023-04-08T11:58:16;99337.31;;;14.52;51.98
47430;BME280;33181;49.246;7.372;2023-04-08T12:00:43;99339.47;;;14.78;51.37
47430;BME280;33181;49.246;7.372;2023-04-08T12:03:10;99341.59;;;14.94;51.17
47430;BME280;33181;49.246;7.372;2023-04-08T12:05:37;99340.66;;;15.04;50.59
47430;BME280;33181;49.246;7.372;2023-04-08T12:08:03;99333.41;;;15.26;49.61
47430;BME280;33181;49.246;7.372;2023-04-08T12:10:29;99345.78;;;14.96;50.43
47430;BME280;33181;49.246;7.372;2023-04-08T12:12:55;99334.63;;;14.83;50.95
47430;BME280;33181;49.246;7.372;2023-04-08T12:15:21;99332.25;;;14.80;51.17
47430;BME280;33181;49.246;7.372;2023-04-08T12:17:47;99346.09;;;14.63;52.02
47430;BME280;33181;49.246;7.372;2023-04-08T12:20:12;99347.41;;;14.78;51.42
47430;BME280;33181;49.246;7.372;2023-04-08T12:22:39;99334.06;;;14.79;50.20
47430;BME280;33181;49.246;7.372;2023-04-08T12:25:05;99340.28;;;14.69;50.31
47430;BME280;33181;49.246;7.372;2023-04-08T12:27:33;99346.00;;;14.64;51.16
47430;BME280;33181;49.246;7.372;2023-04-08T12:30:00;99348.09;;;14.70;51.42
47430;BME280;33181;49.246;7.372;2023-04-08T12:32:28;99341.81;;;14.71;50.86
47430;BME280;33181;49.246;7.372;2023-04-08T12:34:54;99336.28;;;14.44;50.97
47430;BME280;33181;49.246;7.372;2023-04-08T12:37:20;99338.13;;;14.12;51.73
47430;BME280;33181;49.246;7.372;2023-04-08T12:39:46;99338.75;;;14.05;53.01
47430;BME280;33181;49.246;7.372;2023-04-08T12:42:13;99348.44;;;13.95;54.14
47430;BME280;33181;49.246;7.372;2023-04-08T12:44:39;99343.81;;;13.66;55.33
47430;BME280;33181;49.246;7.372;2023-04-08T12:47:04;99353.56;;;13.33;56.37
47430;BME280;33181;49.246;7.372;2023-04-08T12:49:30;99350.09;;;13.33;57.64
47430;BME280;33181;49.246;7.372;2023-04-08T12:51:56;99342.81;;;13.25;59.00
47430;BME280;33181;49.246;7.372;2023-04-08T12:54:22;99341.41;;;13.10;59.68
47430;BME280;33181;49.246;7.372;2023-04-08T12:56:48;99341.66;;;13.07;60.18
47430;BME280;33181;49.246;7.372;2023-04-08T12:59:14;99347.41;;;13.12;60.67
47430;BME280;33181;49.246;7.372;2023-04-08T13:01:40;99351.13;;;13.09;61.27
47430;BME280;33181;49.246;7.372;2023-04-08T13:04:06;99350.47;;;13.17;61.15
47430;BME280;33181;49.246;7.372;2023-04-08T13:06:32;99349.16;;;13.11;60.57
47430;BME280;33181;49.246;7.372;2023-04-08T13:08:57;99356.78;;;12.93;60.19
47430;BME280;33181;49.246;7.372;2023-04-08T13:11:23;99354.84;;;12.95;60.28
47430;BME280;33181;49.246;7.372;2023-04-08T13:13:50;99353.09;;;12.85;60.36